Aérodrome :
LOGIN :

S'inscrire | Disclaimer

   EN    FR    IT 

 










Légende :    VFR   VFR Marginal   IFR   IFR Intensif   IFR Très Intensif
Visi : 
Plafond : 
>= 8 km
>= 3000ft
5 à 8 km
1000 à 3000 ft
1500m à 5 km
500 à 1000 ft
800 à 1500m
200 à 500 ft
< 800m
< 200 ft
Symboles :   Orages  Brouillard  Fortes neiges  Fortes précipitations  Vent > 20 kt
SIGMETs :   Divers  Orages  Givrage  Turbulence  Onde Orograph.  Cendres Volcan.







- Altitude de l'aérodrome : 299 ft
- Code IATA : EDM
- Voir les cartes d'approche


LFRI - La Roche Sur Yon - Les Ajoncs

DERNIER METAR :
  • 151130Z AUTO 27009KT CAVOK 08/06 Q1003 TEMPO 30015G25KT 4000 SHRA SCT030CB

METARs EXPIRÉS :
  • 151100Z AUTO 26005KT 9999 FEW028 SCT033 08/06 Q1003 TEMPO 32020G35KT 3000 -TSRA BKN030CB
  • 151030Z AUTO 25005KT 9999 BKN032 BKN038 BKN044 07/05 Q1003 TEMPO 32020G35KT 3000 -TSRA BKN030CB
  • 151000Z AUTO 28004KT 230V310 9999 SCT040 BKN054 OVC064 06/05 Q1003 TEMPO BKN020TCU
  • 150930Z AUTO 24009KT 9999 -RA SCT030/// BKN044/// BKN052/// ///CB 06/05 Q1003 NOSIG
  • 150900Z AUTO 22003KT 190V260 9999 ///TCU 07/04 Q1003 NOSIG

TAF TAF LFRI
Valide du 15 à 12h jusqu'au 16 à 12h UTC


151100Z 1512/1612 29008KT 9999 SCT030
TEMPO 1512/1516 30015G25KT 4000 SHRA SCT030CB
PROB30 1512/1514 -TSRA
Pas de NOTAMs connus pour ce terrain.



MET'MAP, la Météo Aéronautique d'un coup d'oeil ! - Copyright ORBIFLY Décembre 2007 - Disclaimer

ORBIFLY MET'MAP TEAM :

Programmation & Développement : Alexandra Zaïnal
Conception & Développement : Baudouin d'Aumeries
Co-Programmation & Développement : Marc-Olivier Méhu
Soutien technique & logistique : Manuel Goepfert

Contact : metmap@orbifly.com




SOURCES & CREDITS :

   NOAA